createdAt,value
2019-04-07T00:01:06.677Z,90421.45
2019-04-07T00:03:37.309Z,90300.61
2019-04-07T00:06:07.489Z,90262.81
2019-04-07T00:08:37.897Z,90182.27
2019-04-07T00:11:07.537Z,90150.04
2019-04-07T00:13:37.257Z,90069.07
2019-04-07T00:16:07.215Z,89992.77
2019-04-07T00:18:37.412Z,89952.79
2019-04-07T00:21:07.177Z,89881.13
2019-04-07T00:23:36.984Z,89852.79
2019-04-07T00:26:06.785Z,89807.84
2019-04-07T00:28:36.788Z,89791.56
2019-04-07T00:31:06.609Z,89725.16
2019-04-07T00:33:36.585Z,89686.33
2019-04-07T00:36:06.345Z,89606.44
2019-04-07T00:38:36.325Z,89580.06
2019-04-07T00:41:06.797Z,89559.77
2019-04-07T00:43:36.846Z,89573.83
2019-04-07T00:46:06.548Z,89480.08
2019-04-07T00:48:36.478Z,89417.91
2019-04-07T00:51:07.807Z,89316.60
2019-04-07T00:53:38.846Z,89301.70
2019-04-07T00:56:09.388Z,89346.40
2019-04-07T00:58:39.159Z,89315.43
2019-04-07T01:01:11.616Z,89326.11
2019-04-07T01:03:43.018Z,89284.53
2019-04-07T01:06:12.972Z,89220.77
2019-04-07T01:08:42.905Z,89072.81
2019-04-07T01:11:13.452Z,88906.94
2019-04-07T01:13:43.224Z,88832.30
2019-04-07T01:16:13.287Z,88750.95
2019-04-07T01:18:43.705Z,88723.93
2019-04-07T01:21:13.819Z,88601.77
2019-04-07T01:23:44.645Z,88587.12
2019-04-07T01:26:14.425Z,88563.82
2019-04-07T01:28:44.154Z,88516.94
2019-04-07T01:31:14.400Z,88504.12
2019-04-07T01:33:44.354Z,88486.54
2019-04-07T01:36:14.047Z,88414.11
2019-04-07T01:38:44.341Z,88313.49
2019-04-07T01:44:02.622Z,88173.29
2019-04-07T01:46:33.986Z,88148.31
2019-04-07T01:49:11.743Z,88064.65
2019-04-07T01:51:49.662Z,87908.92
2019-04-07T01:54:33.525Z,87883.05
2019-04-07T01:57:17.006Z,87766.57
2019-04-07T02:00:03.416Z,87676.37
2019-04-07T02:02:37.266Z,87317.05
2019-04-07T02:05:12.304Z,87219.19
2019-04-07T02:07:55.405Z,86203.48
2019-04-07T02:10:27.441Z,87105.41
2019-04-07T02:13:05.943Z,86993.91
2019-04-07T02:15:40.581Z,87045.50
2019-04-07T02:18:12.374Z,87071.23
2019-04-07T02:21:04.338Z,87081.80
2019-04-07T02:23:50.957Z,86955.25
2019-04-07T02:26:37.788Z,87009.23
2019-04-07T02:29:19.232Z,87159.70
2019-04-07T02:32:06.189Z,87244.80
2019-04-07T02:34:53.767Z,86962.99
2019-04-07T02:37:40.971Z,86877.05
2019-04-07T02:40:12.592Z,86859.83
2019-04-07T02:42:47.027Z,86703.80
2019-04-07T02:45:28.332Z,86703.94
2019-04-07T02:48:01.058Z,86770.80
2019-04-07T02:50:33.350Z,86784.77
2019-04-07T02:53:07.889Z,86833.20
2019-04-07T02:55:55.501Z,86845.76
2019-04-07T02:58:38.917Z,86871.16
2019-04-07T03:01:11.469Z,86873.51
2019-04-07T03:03:42.873Z,86853.80
2019-04-07T03:06:32.478Z,86830.67
2019-04-07T03:08:59.436Z,86830.86
2019-04-07T03:11:46.584Z,86847.13
2019-04-07T03:14:18.303Z,86653.23
2019-04-07T03:16:55.828Z,86521.72
2019-04-07T03:19:46.735Z,86514.67
2019-04-07T03:22:27.838Z,86434.20
2019-04-07T03:25:05.593Z,86236.02
2019-04-07T03:27:44.414Z,85849.05
2019-04-07T03:30:21.810Z,85629.25
2019-04-07T03:32:55.378Z,85543.06
2019-04-07T03:35:29.066Z,85576.73
2019-04-07T03:38:00.824Z,85614.64
2019-04-07T03:40:49.616Z,85687.77
2019-04-07T03:43:22.017Z,85607.35
2019-04-07T03:46:00.299Z,85811.36
2019-04-07T03:48:38.094Z,85932.86
2019-04-07T03:51:15.204Z,86007.23
2019-04-07T03:53:47.433Z,85966.86
2019-04-07T03:56:30.820Z,86057.17
2019-04-07T03:59:18.343Z,85980.98
2019-04-07T04:01:52.398Z,86016.48
2019-04-07T04:04:37.257Z,85793.87
2019-04-07T04:07:32.350Z,85598.17
2019-04-07T04:10:17.352Z,85458.34
2019-04-07T04:12:58.652Z,85134.23
2019-04-07T04:15:31.186Z,84951.70
2019-04-07T04:18:01.272Z,85021.43
2019-04-07T04:20:31.074Z,84880.88
2019-04-07T04:23:00.886Z,84903.55
2019-04-07T04:25:30.626Z,84845.84
2019-04-07T04:28:01.226Z,84868.17
2019-04-07T04:30:32.025Z,84713.17
2019-04-07T04:33:03.905Z,84581.97
2019-04-07T04:35:34.007Z,84473.23
2019-04-07T04:38:03.965Z,84488.50
2019-04-07T04:40:33.615Z,84739.08
2019-04-07T04:43:04.649Z,85062.25
2019-04-07T04:45:34.626Z,85359.46
2019-04-07T04:48:04.775Z,85468.27
2019-04-07T04:50:35.376Z,85659.55
2019-04-07T04:53:06.184Z,85892.77
2019-04-07T04:55:37.275Z,86084.16
2019-04-07T04:58:08.767Z,86308.13
2019-04-07T05:00:40.434Z,86495.69
2019-04-07T05:03:11.234Z,86674.03
2019-04-07T05:05:41.386Z,86827.14
2019-04-07T05:08:11.468Z,86980.66
2019-04-07T05:10:41.658Z,87136.08
2019-04-07T05:13:11.526Z,87309.31
2019-04-07T05:15:41.124Z,87423.22
2019-04-07T05:18:10.891Z,87214.27
2019-04-07T05:20:40.871Z,87156.42
2019-04-07T05:23:10.985Z,87255.59
2019-04-07T05:25:41.556Z,87187.41
2019-04-07T05:28:11.343Z,87323.75
2019-04-07T05:30:41.449Z,87083.72
2019-04-07T05:33:11.324Z,87051.25
2019-04-07T05:35:41.282Z,87795.27
2019-04-07T05:38:11.328Z,88828.45
2019-04-07T05:40:41.183Z,89557.88
2019-04-07T05:43:11.880Z,90002.01
2019-04-07T05:45:42.011Z,90215.20
2019-04-07T05:48:12.203Z,90297.41
2019-04-07T05:50:43.017Z,90420.89
2019-04-07T05:53:14.833Z,90501.88
2019-04-07T05:55:46.025Z,90592.31
2019-04-07T05:58:15.913Z,90748.85
2019-04-07T06:00:46.989Z,90835.01
2019-04-07T06:03:18.719Z,90805.02
2019-04-07T06:05:51.184Z,90696.73
2019-04-07T06:08:27.741Z,90677.58
2019-04-07T06:10:56.559Z,90608.95
2019-04-07T06:13:23.683Z,90536.75
2019-04-07T06:15:54.066Z,90528.73
2019-04-07T06:18:23.980Z,90269.41
2019-04-07T06:20:53.780Z,90146.03
2019-04-07T06:23:28.573Z,90113.44
2019-04-07T06:25:59.463Z,89949.28
2019-04-07T06:28:29.294Z,89646.27
2019-04-07T06:31:00.247Z,89559.94
2019-04-07T06:33:32.047Z,89475.31
2019-04-07T06:36:01.941Z,89157.53
2019-04-07T06:38:35.901Z,88825.81
2019-04-07T06:41:04.817Z,89226.63
2019-04-07T06:43:36.637Z,89527.64
2019-04-07T06:46:10.920Z,89707.78
2019-04-07T06:48:58.482Z,89646.42
2019-04-07T06:51:48.093Z,89927.03
2019-04-07T06:54:36.261Z,90252.01
2019-04-07T06:57:08.446Z,90500.27
2019-04-07T06:59:49.060Z,90808.33
2019-04-07T07:02:30.215Z,90852.55
2019-04-07T07:05:05.195Z,91313.63
2019-04-07T07:07:48.173Z,91670.80
2019-04-07T07:10:40.067Z,91818.48
2019-04-07T07:13:29.243Z,92055.12
2019-04-07T07:16:10.428Z,92220.95
2019-04-07T07:18:42.542Z,92324.97
2019-04-07T07:21:33.975Z,92378.70
2019-04-07T07:24:02.363Z,92402.91
2019-04-07T07:26:35.271Z,92408.20
2019-04-07T07:29:06.424Z,92416.82
2019-04-07T07:31:35.941Z,92416.67
2019-04-07T07:34:09.362Z,92221.70
2019-04-07T07:36:38.226Z,92389.47
2019-04-07T07:39:11.366Z,92409.62
2019-04-07T07:41:40.952Z,92402.34
2019-04-07T07:44:10.800Z,92409.17
2019-04-07T07:46:43.186Z,92386.95
2019-04-07T07:49:13.629Z,92368.11
2019-04-07T07:51:46.945Z,92349.02
2019-04-07T07:54:18.311Z,92333.41
2019-04-07T07:56:50.214Z,92283.80
2019-04-07T07:59:20.097Z,92243.93
2019-04-07T08:01:51.656Z,92189.88
2019-04-07T08:04:24.915Z,92100.39
2019-04-07T08:06:54.475Z,91877.05
2019-04-07T08:09:26.005Z,91728.28
2019-04-07T08:11:55.841Z,91560.33
2019-04-07T08:14:26.041Z,91472.55
2019-04-07T08:17:00.169Z,91543.58
2019-04-07T08:19:30.859Z,91639.82
2019-04-07T08:22:03.187Z,91790.83
2019-04-07T08:24:35.158Z,91848.11
2019-04-07T08:27:05.180Z,91795.08
2019-04-07T08:29:37.100Z,91689.02
2019-04-07T08:32:06.664Z,91660.06
2019-04-07T08:34:37.224Z,91780.98
2019-04-07T08:37:08.415Z,91503.32
2019-04-07T08:39:38.738Z,91071.16
2019-04-07T08:42:11.806Z,90798.83
2019-04-07T08:44:40.826Z,90462.14
2019-04-07T08:47:18.854Z,90209.44
2019-04-07T08:49:47.084Z,90441.63
2019-04-07T08:52:17.485Z,90437.16
2019-04-07T08:54:50.330Z,90618.84
2019-04-07T08:57:19.711Z,90293.48
2019-04-07T08:59:52.772Z,90188.00
2019-04-07T09:02:26.862Z,90120.63
2019-04-07T09:04:55.889Z,89913.09
2019-04-07T09:07:28.720Z,89831.57
2019-04-07T09:09:58.727Z,89911.18
2019-04-07T09:12:30.970Z,90109.77
2019-04-07T09:15:03.158Z,89714.09
2019-04-07T09:17:44.595Z,89502.94
2019-04-07T09:20:14.675Z,89388.33
2019-04-07T09:22:51.559Z,89663.09
2019-04-07T09:25:27.354Z,90085.43
2019-04-07T09:28:15.344Z,90271.57
2019-04-07T09:30:48.290Z,90317.41
2019-04-07T09:33:21.590Z,90264.80
2019-04-07T09:36:00.614Z,90220.24
2019-04-07T09:38:33.602Z,90301.23
2019-04-07T09:41:09.444Z,90565.18
2019-04-07T09:43:47.362Z,90787.44
2019-04-07T09:46:19.113Z,91096.82
2019-04-07T09:48:59.986Z,90972.80
2019-04-07T09:51:32.051Z,90823.48
2019-04-07T09:54:07.158Z,90720.45
2019-04-07T09:56:56.156Z,90621.20
2019-04-07T09:59:40.025Z,90566.05
2019-04-07T10:02:32.036Z,90704.79
2019-04-07T10:05:19.012Z,90598.36
2019-04-07T10:08:03.336Z,90471.89
2019-04-07T10:10:53.016Z,90564.91
2019-04-07T10:13:26.444Z,90313.37
2019-04-07T10:15:58.332Z,90157.86
2019-04-07T10:18:42.925Z,90095.80
2019-04-07T10:21:18.351Z,90076.73
2019-04-07T10:23:51.575Z,89769.97
2019-04-07T10:26:33.744Z,89637.21
2019-04-07T10:29:21.951Z,89610.03
2019-04-07T10:32:08.843Z,89438.12
2019-04-07T10:34:40.790Z,89400.89
2019-04-07T10:37:25.502Z,89785.77
2019-04-07T10:40:19.538Z,90043.61
2019-04-07T10:42:47.310Z,90193.63
2019-04-07T10:45:22.854Z,90279.11
2019-04-07T10:47:55.185Z,90256.22
2019-04-07T10:50:36.762Z,90290.78
2019-04-07T10:53:22.779Z,90150.12
2019-04-07T10:55:57.457Z,90148.98
2019-04-07T10:58:46.108Z,90121.22
2019-04-07T11:01:17.765Z,90244.34
2019-04-07T11:03:59.463Z,90369.31
2019-04-07T11:06:47.119Z,90402.39
2019-04-07T11:09:37.734Z,90376.11
2019-04-07T11:12:27.625Z,90247.83
2019-04-07T11:15:20.313Z,90595.50
2019-04-07T11:18:04.202Z,90375.27
2019-04-07T11:20:41.328Z,90115.36
2019-04-07T11:23:13.053Z,90047.89
2019-04-07T11:25:46.118Z,89857.56
2019-04-07T11:28:28.844Z,89914.93
2019-04-07T11:31:00.542Z,90121.22
2019-04-07T11:33:32.879Z,89976.22
2019-04-07T11:36:08.430Z,90034.98
2019-04-07T11:38:54.898Z,90027.66
2019-04-07T11:41:36.059Z,90316.02
2019-04-07T11:44:22.885Z,90509.77
2019-04-07T11:47:02.084Z,90414.26
2019-04-07T11:49:34.557Z,90279.11
2019-04-07T11:52:18.456Z,90185.03
2019-04-07T11:55:08.548Z,90066.16
2019-04-07T11:58:02.925Z,90069.31
2019-04-07T12:00:39.808Z,90135.10
2019-04-07T12:03:26.877Z,90287.44
2019-04-07T12:05:57.068Z,90401.96
2019-04-07T12:08:44.513Z,90516.44
2019-04-07T12:11:19.952Z,90992.56
2019-04-07T12:14:00.852Z,90639.90
2019-04-07T12:16:33.737Z,90757.84
2019-04-07T12:19:20.379Z,90720.95
2019-04-07T12:22:10.418Z,90794.97
2019-04-07T12:24:44.464Z,90801.72
2019-04-07T12:27:32.001Z,90848.75
2019-04-07T12:30:21.457Z,90942.45
2019-04-07T12:32:55.888Z,91082.53
2019-04-07T12:35:37.719Z,91019.66
2019-04-07T12:38:26.426Z,90948.66
2019-04-07T12:41:11.483Z,90950.69
2019-04-07T12:43:37.769Z,90933.00
2019-04-07T12:46:25.425Z,90991.98
2019-04-07T12:49:12.210Z,90920.08
2019-04-07T12:51:46.081Z,90889.05
2019-04-07T12:54:23.731Z,90848.83
2019-04-07T12:57:12.186Z,90818.34
2019-04-07T12:59:54.961Z,90805.13
2019-04-07T13:02:34.983Z,90804.17
2019-04-07T13:05:19.655Z,90719.34
2019-04-07T13:08:01.604Z,90661.91
2019-04-07T13:10:51.231Z,90515.92
2019-04-07T13:13:29.555Z,90376.53
2019-04-07T13:16:09.176Z,90255.42
2019-04-07T13:18:42.463Z,90216.98
2019-04-07T13:21:25.059Z,90154.42
2019-04-07T13:24:12.695Z,90248.64
2019-04-07T13:26:47.326Z,90221.23
2019-04-07T13:29:35.894Z,90287.34
2019-04-07T13:32:07.665Z,90117.42
2019-04-07T13:34:55.418Z,89970.59
2019-04-07T13:37:26.602Z,89898.42
2019-04-07T13:40:05.020Z,89928.06
2019-04-07T13:42:42.832Z,89830.06
2019-04-07T13:45:16.856Z,89809.72
2019-04-07T13:47:49.497Z,89808.02
2019-04-07T13:50:33.311Z,89850.25
2019-04-07T13:53:25.807Z,89837.14
2019-04-07T13:56:05.112Z,89975.38
2019-04-07T13:58:52.843Z,90137.41
2019-04-07T14:01:24.021Z,90137.41
2019-04-07T14:04:12.086Z,90109.16
2019-04-07T14:06:45.888Z,90055.30
2019-04-07T14:09:21.111Z,90162.02
2019-04-07T14:12:04.207Z,90223.04
2019-04-07T14:14:35.998Z,90299.73
2019-04-07T14:17:24.758Z,90355.84
2019-04-07T14:19:59.488Z,90378.19
2019-04-07T14:22:31.090Z,90469.92
2019-04-07T14:25:05.338Z,90427.56
2019-04-07T14:27:42.693Z,90462.69
2019-04-07T14:30:14.560Z,90684.19
2019-04-07T14:32:52.065Z,90455.38
2019-04-07T14:35:26.932Z,90618.48
2019-04-07T14:38:15.852Z,90672.09
2019-04-07T14:41:01.105Z,90643.89
2019-04-07T14:43:34.438Z,90724.95
2019-04-07T14:46:23.900Z,90669.75
2019-04-07T14:48:55.251Z,90637.11
2019-04-07T14:51:42.828Z,90674.89
2019-04-07T14:54:29.246Z,90719.59
2019-04-07T14:57:13.263Z,90734.00
2019-04-07T14:59:45.509Z,90755.22
2019-04-07T15:02:18.295Z,90823.88
2019-04-07T15:04:50.958Z,90832.44
2019-04-07T15:07:40.826Z,90837.48
2019-04-07T15:10:17.975Z,90868.89
2019-04-07T15:13:01.754Z,90921.64
2019-04-07T15:15:32.524Z,90925.69
2019-04-07T15:18:05.808Z,91001.61
2019-04-07T15:20:42.698Z,91055.96
2019-04-07T15:23:12.187Z,91142.98
2019-04-07T15:25:46.026Z,91241.14
2019-04-07T15:28:17.405Z,91269.54
2019-04-07T15:30:50.433Z,91340.39
2019-04-07T15:33:21.153Z,91429.09
2019-04-07T15:35:52.432Z,91499.10
2019-04-07T15:38:26.718Z,91524.34
2019-04-07T15:41:07.619Z,91575.98
2019-04-07T15:43:40.074Z,91650.04
2019-04-07T15:46:10.595Z,91705.92
2019-04-07T15:48:48.552Z,91722.98
2019-04-07T15:51:22.999Z,91704.09
2019-04-07T15:53:58.623Z,91693.37
2019-04-07T15:56:30.400Z,91751.59
2019-04-07T15:59:02.011Z,91786.45
2019-04-07T16:01:33.722Z,91833.78
2019-04-07T16:04:08.634Z,91846.91
2019-04-07T16:06:39.501Z,91858.66
2019-04-07T16:09:28.396Z,91856.00
2019-04-07T16:11:44.615Z,91880.42
2019-04-07T16:14:18.083Z,91914.61
2019-04-07T16:16:47.816Z,91961.70
2019-04-07T16:19:24.920Z,92015.22
2019-04-07T16:21:49.404Z,92049.70
2019-04-07T16:24:22.710Z,92083.34
2019-04-07T16:26:53.501Z,92101.95
2019-04-07T16:29:25.589Z,92135.75
2019-04-07T16:31:58.686Z,92157.47
2019-04-07T16:34:29.137Z,92149.97
2019-04-07T16:37:07.315Z,92180.94
2019-04-07T16:39:38.772Z,92179.20
2019-04-07T16:42:11.029Z,92187.56
2019-04-07T16:44:43.882Z,92193.53
2019-04-07T16:47:21.871Z,92204.86
2019-04-07T16:49:48.839Z,92228.08
2019-04-07T16:52:19.002Z,92211.63
2019-04-07T16:54:49.142Z,92225.05
2019-04-07T16:57:18.983Z,92240.83
2019-04-07T16:59:49.222Z,92260.45
2019-04-07T17:02:22.058Z,92276.69
2019-04-07T17:04:52.667Z,92264.75
2019-04-07T17:07:23.338Z,92278.71
2019-04-07T17:09:56.433Z,92272.76
2019-04-07T17:12:26.970Z,92268.06
2019-04-07T17:14:57.582Z,92258.69
2019-04-07T17:17:28.311Z,92251.79
2019-04-07T17:19:59.601Z,92267.50
2019-04-07T17:22:31.492Z,92274.95
2019-04-07T17:25:05.020Z,92213.73
2019-04-07T17:27:33.350Z,92293.52
2019-04-07T17:30:03.669Z,92304.23
2019-04-07T17:32:35.744Z,92317.42
2019-04-07T17:35:07.343Z,92299.67
2019-04-07T17:37:37.448Z,92297.01
2019-04-07T17:40:13.058Z,92313.44
2019-04-07T17:42:42.150Z,92328.66
2019-04-07T17:45:30.849Z,92321.59
2019-04-07T17:48:19.149Z,92338.23
2019-04-07T17:51:09.723Z,92346.42
2019-04-07T17:53:50.620Z,92365.51
2019-04-07T17:56:24.295Z,92346.59
2019-04-07T17:59:00.711Z,92357.83
2019-04-07T18:01:41.029Z,92357.78
2019-04-07T18:04:18.900Z,92350.51
2019-04-07T18:06:57.182Z,92355.38
2019-04-07T18:09:28.741Z,92367.69
2019-04-07T18:12:18.410Z,92373.73
2019-04-07T18:15:04.367Z,92381.27
2019-04-07T18:17:48.897Z,92392.30
2019-04-07T18:20:40.478Z,92391.27
2019-04-07T18:23:34.681Z,92389.58
2019-04-07T18:26:10.416Z,92391.89
2019-04-07T18:28:45.347Z,92401.31
2019-04-07T18:31:37.876Z,92408.56
2019-04-07T18:34:27.135Z,92404.67
2019-04-07T18:37:13.040Z,92400.14
2019-04-07T18:39:52.393Z,92397.60
2019-04-07T18:42:21.987Z,92395.23
2019-04-07T18:44:57.612Z,92381.08
2019-04-07T18:47:32.525Z,92372.87
2019-04-07T18:50:21.987Z,92366.78
2019-04-07T18:53:10.782Z,92370.14
2019-04-07T18:55:42.251Z,92367.55
2019-04-07T18:58:26.747Z,92356.27
2019-04-07T19:01:13.713Z,92356.25
2019-04-07T19:03:51.173Z,92368.24
2019-04-07T19:06:30.065Z,92368.10
2019-04-07T19:09:12.437Z,92372.50
2019-04-07T19:11:50.187Z,92354.13
2019-04-07T19:14:40.258Z,92359.19
2019-04-07T19:17:01.024Z,92347.02
2019-04-07T19:19:35.507Z,92343.45
2019-04-07T19:22:26.748Z,92332.66
2019-04-07T19:25:11.122Z,92338.86
2019-04-07T19:27:54.784Z,92338.88
2019-04-07T19:30:43.902Z,92339.75
2019-04-07T19:33:19.233Z,92338.09
2019-04-07T19:36:10.289Z,92341.70
2019-04-07T19:38:52.193Z,92343.45
2019-04-07T19:41:31.474Z,91966.20
2019-04-07T19:44:07.759Z,92361.81
2019-04-07T19:46:39.221Z,92341.14
2019-04-07T19:49:22.558Z,92349.23
2019-04-07T19:52:09.758Z,92357.38
2019-04-07T19:54:49.334Z,92165.41
2019-04-07T19:57:28.207Z,92332.24
2019-04-07T20:00:02.816Z,92338.34
2019-04-07T20:02:45.118Z,92339.22
2019-04-07T20:05:21.121Z,92336.34
2019-04-07T20:07:56.152Z,92346.97
2019-04-07T20:10:28.233Z,92350.39
2019-04-07T20:13:09.163Z,92343.66
2019-04-07T20:15:58.779Z,92334.19
2019-04-07T20:18:36.164Z,92336.77
2019-04-07T20:21:13.149Z,92308.66
2019-04-07T20:24:04.583Z,92303.77
2019-04-07T20:26:46.025Z,92310.31
2019-04-07T20:29:20.125Z,92310.05
2019-04-07T20:31:57.514Z,92313.05
2019-04-07T20:34:29.642Z,92071.02
2019-04-07T20:37:13.247Z,92301.52
2019-04-07T20:39:58.849Z,92322.89
2019-04-07T20:42:38.857Z,92330.37
2019-04-07T20:45:18.732Z,92331.79
2019-04-07T20:48:05.105Z,92312.27
2019-04-07T20:50:46.073Z,92327.19
2019-04-07T20:53:29.836Z,92310.11
2019-04-07T20:56:00.442Z,92311.02
2019-04-07T20:58:47.361Z,92298.76
2019-04-07T21:01:17.330Z,92298.70
2019-04-07T21:03:49.376Z,92302.66
2019-04-07T21:06:32.108Z,92294.33
2019-04-07T21:09:09.927Z,92270.14
2019-04-07T21:11:58.785Z,92243.42
2019-04-07T21:14:47.315Z,92226.54
2019-04-07T21:17:21.833Z,92217.80
2019-04-07T21:20:11.722Z,92215.61
2019-04-07T21:22:56.141Z,92198.06
2019-04-07T21:25:41.254Z,92167.77
2019-04-07T21:28:16.747Z,92127.30
2019-04-07T21:30:50.399Z,92119.23
2019-04-07T21:33:28.215Z,92092.67
2019-04-07T21:36:06.454Z,92124.71
2019-04-07T21:38:54.840Z,92096.81
2019-04-07T21:41:31.233Z,92080.90
2019-04-07T21:44:18.886Z,92057.53
2019-04-07T21:47:06.477Z,92032.83
2019-04-07T21:49:46.948Z,92022.88
2019-04-07T21:52:21.724Z,91983.62
2019-04-07T21:54:51.672Z,91980.06
2019-04-07T21:57:24.469Z,91943.30
2019-04-07T21:59:59.908Z,91920.25
2019-04-07T22:02:33.444Z,91913.80
2019-04-07T22:05:04.902Z,91548.94
2019-04-07T22:07:48.619Z,91910.36
2019-04-07T22:10:20.470Z,91912.68
2019-04-07T22:12:50.300Z,91926.95
2019-04-07T22:15:20.060Z,91927.52
2019-04-07T22:17:50.067Z,91908.03
2019-04-07T22:20:20.621Z,91909.73
2019-04-07T22:22:54.349Z,91910.51
2019-04-07T22:25:33.517Z,91922.67
2019-04-07T22:28:03.441Z,91927.20
2019-04-07T22:30:40.140Z,91936.24
2019-04-07T22:33:10.433Z,91956.86
2019-04-07T22:35:42.736Z,91971.52
2019-04-07T22:38:12.269Z,91927.69
2019-04-07T22:40:41.765Z,91920.25
2019-04-07T22:43:16.721Z,91899.35
2019-04-07T22:45:55.081Z,91892.84
2019-04-07T22:48:22.850Z,91902.94
2019-04-07T22:50:51.835Z,91866.64
2019-04-07T22:53:27.431Z,91884.71
2019-04-07T22:55:56.903Z,91880.14
2019-04-07T22:58:27.820Z,91902.38
2019-04-07T23:00:59.306Z,91889.00
2019-04-07T23:03:32.237Z,91858.00
2019-04-07T23:06:05.185Z,91851.03
2019-04-07T23:08:36.990Z,91843.25
2019-04-07T23:11:09.264Z,91842.50
2019-04-07T23:13:39.726Z,91832.94
2019-04-07T23:16:14.936Z,91822.49
2019-04-07T23:18:44.497Z,91828.88
2019-04-07T23:21:14.966Z,91795.44
2019-04-07T23:23:44.928Z,91756.90
2019-04-07T23:26:14.683Z,91724.81
2019-04-07T23:28:44.500Z,91710.69
2019-04-07T23:31:14.183Z,91670.08
2019-04-07T23:33:44.084Z,91680.24
2019-04-07T23:36:15.748Z,91663.60
2019-04-07T23:38:45.386Z,91574.70
2019-04-07T23:41:16.804Z,91534.81
2019-04-07T23:43:46.592Z,91481.21
2019-04-07T23:46:23.158Z,91386.05
2019-04-07T23:48:51.849Z,91359.13
2019-04-07T23:51:21.752Z,91366.13
2019-04-07T23:54:11.799Z,91383.71
2019-04-07T23:56:44.665Z,91378.66
2019-04-07T23:59:14.865Z,91408.69
